Aérodrome :
LOGIN :

S'inscrire | Disclaimer

   EN    FR    IT 

 










Légende :    VFR   VFR Marginal   IFR   IFR Intensif   IFR Très Intensif
Visi : 
Plafond : 
>= 8 km
>= 3000ft
5 à 8 km
1000 à 3000 ft
1500m à 5 km
500 à 1000 ft
800 à 1500m
200 à 500 ft
< 800m
< 200 ft
Symboles :   Orages  Brouillard  Fortes neiges  Fortes précipitations  Vent > 20 kt
SIGMETs :   Divers  Orages  Givrage  Turbulence  Onde Orograph.  Cendres Volcan.






- Altitude de l'aérodrome : 13 ft
- Code IATA : OST


EBOS - Oostend bruges Int.

DERNIER METAR :
  • 081050Z 11005KT 080V160 CAVOK 33/14 Q1019 BECMG 02011KT

METARs EXPIRÉS :
  • 081020Z 10004KT 060V140 CAVOK 33/14 Q1019 BECMG 02011KT
  • 080950Z 13003KT 080V190 CAVOK 32/14 Q1019 BECMG 02011KT
  • 080920Z VRB02KT CAVOK 31/17 Q1019 BECMG 02011KT
  • 080850Z VRB02KT CAVOK 29/17 Q1019 NOSIG
  • 080820Z VRB02KT CAVOK 29/15 Q1020 NOSIG

TAF TAF EBOS
Valide du 08 à 06h jusqu'au 09 à 12h UTC


080510Z 0806/0912 13005KT 8000 NSC
BECMG 0813/0815 02010KT
BECMG 0822/0824 08006KT



MET'MAP, la Météo Aéronautique d'un coup d'oeil ! - Copyright ORBIFLY Décembre 2007 - Disclaimer

ORBIFLY MET'MAP TEAM :

Programmation & Développement : Alexandra Zaïnal
Sur une idée originale de : Baudouin d'Aumeries
Assistance à la programmation : Marc-Olivier Méhu
Soutien technique & logistique : Manuel Goepfert

Contact : metmap@orbifly.com




SOURCES & CREDITS :

   NOAA